CFT2 weather

Wilderman Farm Airport
Blackie, Alberta, Canada

Public forecast

Using degrees Celsius for public forecast. Weather courtesy of forecast.io.

METAR (pilot weather report)

Closest report is Calgary International Airport, 37.6 nm (69.6 km) NNW. Retrieved 2019/06/16 19:00 UTC (11 minutes ago):

CYYC 161900Z 05006KT 020V160 40SM SCT060 19/07 A3004 RMK CU4 SLP178 DENSITY ALT 4800FT

TAF (pilot weather forecast)

Closest forecast is Calgary International Airport, 37.6 nm (69.6 km) NNW. Retrieved 2019/06/16 18:42 UTC (29 minutes ago):

TAF CYYC 161738Z 1618/1718 36008KT P6SM FEW040 FM162300 01010KT P6SM SCT080 TEMPO 1623/1705 P6SM VCTS BKN080CB FM170500 VRB03KT P6SM FEW080 BECMG 1713/1715 16008KT RMK NXT FCST BY 162100Z